Latest Weather Observations for Ballera

IDQ60801

Issued at 5:02 pm EST Sunday 23 July 2017 (issued every 30 minutes, with the page automatically refreshed every 10 minutes)

About weather observations | Map of weather stations | Latest weather observations for QLD | Other Formats
Station Details ID: 045009 Name: BALLERA GAS FIELD Lat: -27.40 Lon: 141.81 Height: 114.5 m
Data from the previous 72 hours. | See also: Recent months at Ballera
Date/Time
EST
Temp
°C
App
Temp
°C
Dew
Point
°C
Rel
Hum
%
Delta-T
°C
Wind Press
QNH
hPa
Press
MSL
hPa
Rain since
9am
mm
Dir  Spd
km/h
Gust
km/h
Spd
kts
Gust
kts
23/05:00pm 24.0 19.0 -8.2 11 12.6 S 11 17 6 9 1018.9 1018.9 0.0
23/04:30pm 24.2 18.7 -9.3 10 12.9 S 13 19 7 10 1019.0 1019.0 0.0
23/04:00pm 24.5 19.0 -9.1 10 13.0 SSW 13 22 7 12 1019.0 1019.0 0.0
23/03:30pm 24.3 18.9 -8.0 11 12.8 SW 13 22 7 12 1018.9 1018.9 0.0
23/03:00pm 24.0 18.7 -7.1 12 12.4 S 13 17 7 9 1019.1 1019.1 0.0
23/02:30pm 23.5 18.2 -7.5 12 12.3 SW 13 20 7 11 1019.3 1019.3 0.0
23/02:00pm 23.0 17.3 -7.9 12 12.0 SSW 15 22 8 12 1019.6 1019.6 0.0
23/01:30pm 22.3 17.0 -7.4 13 11.6 SSW 13 19 7 10 1020.0 1020.0 0.0
23/01:00pm 22.2 17.4 -5.6 15 11.2 SSW 11 24 6 13 1020.4 1020.4 0.0
23/12:30pm 21.7 17.7 -6.0 15 11.1 NNE 7 19 4 10 1021.1 1021.0 0.0
23/12:00pm 21.5 17.6 -4.5 17 10.7 NNE 7 11 4 6 1021.6 1021.5 0.0
23/11:30am 20.3 16.3 -5.5 17 10.3 NE 7 13 4 7 1021.7 1021.6 0.0
23/11:00am 20.0 15.4 -4.3 19 9.9 NE 11 15 6 8 1022.0 1021.9 0.0
23/10:30am 19.0 14.4 -4.4 20 9.4 NE 11 15 6 8 1022.3 1022.2 0.0
23/10:00am 18.1 13.9 -3.9 22 8.8 NE 9 11 5 6 1022.3 1022.2 0.0
23/09:30am 16.9 14.4 -4.3 23 8.4 CALM 0 0 0 0 1022.2 1022.1 0.0
23/09:00am 13.4 10.8 -4.7 28 6.8 CALM 0 0 0 0 1021.9 1021.8 0.0
23/08:30am 11.0 7.1 -5.0 32 5.8 NE 7 7 4 4 1021.8 1021.7 0.0
23/08:00am 8.9 4.9 -5.7 35 5.1 NE 7 9 4 5 1021.5 1021.4 0.0
23/07:30am 8.1 4.3 -5.3 38 4.7 NE 6 7 3 4 1021.4 1021.3 0.0
23/07:00am 7.8 3.3 -7.1 34 4.9 NE 9 11 5 6 1021.1 1021.0 0.0
23/06:30am 9.0 4.6 -5.6 35 5.1 NE 9 13 5 7 1020.6 1020.6 0.0
23/06:00am 9.0 4.2 -5.6 35 5.1 NE 11 13 6 7 1020.2 1020.2 0.0
23/05:30am 8.9 4.5 -6.1 34 5.2 NE 9 11 5 6 1019.9 1019.9 0.0
23/05:00am 9.2 4.4 -5.8 34 5.2 NE 11 13 6 7 1019.7 1019.7 0.0
23/04:30am 8.7 4.3 -5.9 35 5.1 NE 9 11 5 6 1019.7 1019.7 0.0
23/04:00am 7.4 3.0 -6.3 37 4.6 NE 9 15 5 8 1019.5 1019.5 0.0
23/03:30am 7.4 1.8 -6.3 37 4.6 ENE 15 19 8 10 1019.3 1019.3 0.0
23/03:00am 7.9 2.6 -7.0 34 4.9 ESE 13 13 7 7 1020.1 1020.1 0.0
23/02:30am 9.8 5.0 -6.1 32 5.6 ESE 11 13 6 7 1020.4 1020.4 0.0
23/02:00am 8.8 4.2 -7.4 31 5.4 ESE 9 11 5 6 1020.6 1020.6 0.0
23/01:30am 9.8 5.3 -6.5 31 5.6 ESE 9 11 5 6 1020.9 1020.8 0.0
23/01:00am 10.6 6.2 -6.2 30 5.9 ESE 9 13 5 7 1020.9 1020.8 0.0
23/12:30am 9.1 5.0 -7.1 31 5.5 ESE 7 11 4 6 1021.0 1020.9 0.0
23/12:00am 13.1 8.3 -5.9 26 6.9 ESE 11 13 6 7 1020.8 1020.7 0.0
 
Date/Time
EST
Temp
°C
App
Temp
°C
Dew
Point
°C
Rel
Hum
%
Delta-T
°C
Wind Press
QNH
hPa
Press
MSL
hPa
Rain since
9am
mm
Dir  Spd
km/h
Gust
km/h
Spd
kts
Gust
kts
22/11:30pm 13.9 9.1 -5.8 25 7.3 ESE 11 13 6 7 1020.9 1020.8 0.0
22/11:00pm 13.5 8.7 -6.1 25 7.1 ESE 11 13 6 7 1020.9 1020.8 0.0
22/10:30pm 13.6 8.8 -6.0 25 7.2 ESE 11 13 6 7 1020.9 1020.8 0.0
22/10:00pm 13.8 9.0 -5.9 25 7.2 ESE 11 11 6 6 1020.9 1020.8 0.0
22/09:30pm 13.4 8.6 -6.2 25 7.1 ESE 11 13 6 7 1020.6 1020.6 0.0
22/09:00pm 13.9 9.1 -6.3 24 7.4 ESE 11 13 6 7 1020.6 1020.6 0.0
22/08:30pm 14.7 9.9 -6.2 23 7.7 ESE 11 13 6 7 1020.5 1020.5 0.0
22/08:00pm 14.8 9.6 -6.1 23 7.7 ESE 13 15 7 8 1020.3 1020.3 0.0
22/07:30pm 15.3 10.1 -6.3 22 8.0 ESE 13 15 7 8 1020.1 1020.1 0.0
22/07:00pm 15.4 10.5 -6.8 21 8.1 ESE 11 13 6 7 1019.9 1019.9 0.0
22/06:30pm 16.2 10.9 -6.8 20 8.5 ESE 13 15 7 8 1019.4 1019.4 0.0
22/06:00pm 18.1 12.9 -6.6 18 9.4 ESE 13 15 7 8 1019.1 1019.1 0.0
22/05:30pm 19.9 15.4 -6.6 16 10.3 ESE 9 13 5 7 1018.7 1018.7 0.0
22/05:00pm 20.7 16.3 -6.0 16 10.6 ESE 9 24 5 13 1018.5 1018.5 0.0
22/04:30pm 20.6 15.8 -6.1 16 10.6 ESE 11 17 6 9 1018.4 1018.4 0.0
22/04:00pm 20.7 16.3 -6.0 16 10.6 E 9 17 5 9 1018.2 1018.2 0.0
22/03:30pm 21.1 17.4 -4.9 17 10.6 SSE 6 15 3 8 1018.3 1018.3 0.0
22/03:00pm 21.6 17.3 -5.3 16 10.9 SSE 9 20 5 11 1018.4 1018.4 0.0
22/02:30pm 20.0 15.6 -5.8 17 10.2 SE 9 17 5 9 1018.8 1018.8 0.0
22/02:00pm 20.2 16.5 -4.8 18 10.1 SE 6 13 3 7 1019.1 1019.1 0.0
22/01:30pm 19.2 15.3 -5.0 19 9.6 ENE 7 13 4 7 1019.7 1019.7 0.0
22/01:00pm 19.2 15.3 -4.3 20 9.5 NE 7 17 4 9 1020.5 1020.5 0.0
22/12:30pm 18.8 14.2 -4.0 21 9.2 NNE 11 20 6 11 1021.1 1021.0 0.0
22/12:00pm 18.5 13.6 -3.6 22 9.0 NNE 13 17 7 9 1021.7 1021.6 0.0
22/11:30am 18.6 13.3 -3.5 22 9.0 NE 15 20 8 11 1022.3 1022.2 0.0
22/11:00am 16.6 11.3 -4.0 24 8.1 NE 15 19 8 10 1022.8 1022.8 0.0
22/10:30am 15.4 10.1 -4.0 26 7.6 NE 15 19 8 10 1023.2 1023.2 0.0
22/10:00am 14.5 8.8 -3.8 28 7.1 NE 17 20 9 11 1023.2 1023.2 0.0
22/09:30am 12.7 8.5 -4.0 31 6.3 SE 9 11 5 6 1023.3 1023.3 0.0
22/09:00am 10.2 6.0 -4.2 36 5.3 SE 9 11 5 6 1023.3 1023.3 0.0
22/08:30am 8.1 3.9 -4.0 42 4.4 SE 9 11 5 6 1023.1 1023.1 0.0
22/08:00am 6.6 2.3 -4.5 45 3.8 SE 9 11 5 6 1023.0 1023.0 0.0
22/07:30am 5.4 1.1 -5.0 47 3.5 SE 9 11 5 6 1022.7 1022.7 0.0
22/07:00am 5.8 1.6 -4.3 48 3.5 SE 9 11 5 6 1022.4 1022.4 0.0
22/06:30am 6.5 2.3 -4.0 47 3.7 SE 9 9 5 5 1022.3 1022.2 0.0
22/06:00am 5.3 0.9 -5.4 46 3.6 SE 9 11 5 6 1022.1 1022.0 0.0
22/05:30am 5.9 0.8 -4.8 46 3.7 SE 13 15 7 8 1021.9 1021.8 0.0
22/05:00am 6.2 1.2 -4.3 47 3.6 SE 13 15 7 8 1021.8 1021.7 0.0
22/04:30am 6.4 1.0 -4.4 46 3.8 SE 15 17 8 9 1021.9 1021.8 0.0
22/04:00am 6.3 0.9 -4.7 45 3.8 ESE 15 17 8 9 1021.7 1021.6 0.0
22/03:30am 6.9 1.9 -4.5 44 4.0 ESE 13 17 7 9 1021.6 1021.5 0.0
22/03:00am 7.2 2.6 -4.5 43 4.1 ESE 11 13 6 7 1021.6 1021.5 0.0
22/02:30am 6.8 2.1 -4.9 43 4.0 ESE 11 13 6 7 1021.6 1021.5 0.0
22/02:00am 7.9 3.6 -4.5 41 4.4 ESE 9 11 5 6 1021.9 1021.8 0.0
22/01:30am 8.1 3.1 -4.3 41 4.4 ESE 13 15 7 8 1021.8 1021.7 0.0
22/01:00am 8.2 2.8 -4.2 41 4.4 ESE 15 17 8 9 1022.1 1022.0 0.0
22/12:30am 8.8 3.9 -3.7 41 4.6 ESE 13 17 7 9 1022.3 1022.2 0.0
22/12:00am 9.3 4.8 -3.6 40 4.7 ESE 11 13 6 7 1022.3 1022.2 0.0
 
Date/Time
EST
Temp
°C
App
Temp
°C
Dew
Point
°C
Rel
Hum
%
Delta-T
°C
Wind Press
QNH
hPa
Press
MSL
hPa
Rain since
9am
mm
Dir  Spd
km/h
Gust
km/h
Spd
kts
Gust
kts
21/11:30pm 9.9 5.4 -3.0 40 4.9 ESE 11 13 6 7 1022.5 1022.5 0.0
21/11:00pm 9.5 4.6 -3.4 40 4.8 ESE 13 15 7 8 1022.7 1022.7 0.0
21/10:30pm 10.6 5.7 -3.1 38 5.2 ESE 13 15 7 8 1022.8 1022.8 0.0
21/10:00pm 10.8 6.2 -3.7 36 5.4 ESE 11 15 6 8 1022.7 1022.7 0.0
21/09:30pm 11.7 6.9 -2.9 36 5.6 ESE 13 15 7 8 1022.6 1022.6 0.0
21/09:00pm 11.3 6.5 -2.8 37 5.4 ESE 13 15 7 8 1022.4 1022.4 0.0
21/08:30pm 11.6 6.7 -3.3 35 5.7 ESE 13 13 7 7 1022.2 1022.1 0.0
21/08:00pm 13.1 8.7 -2.8 33 6.2 ESE 11 13 6 7 1021.9 1021.8 0.0
21/07:30pm 13.8 9.8 -2.6 32 6.5 ESE 9 13 5 7 1021.6 1021.5 0.0
21/07:00pm 13.9 9.5 -2.5 32 6.5 ESE 11 13 6 7 1021.2 1021.1 0.0
21/06:30pm 15.0 10.6 -2.4 30 7.0 ESE 11 13 6 7 1020.6 1020.6 0.0
21/06:00pm 16.5 12.2 -2.0 28 7.6 ESE 11 15 6 8 1020.4 1020.4 0.0
21/05:30pm 17.7 13.4 -2.0 26 8.2 SE 11 19 6 10 1020.2 1020.2 0.0
21/05:00pm 18.0 12.5 -2.3 25 8.4 SSE 17 22 9 12 1019.9 1019.9 0.0
21/04:30pm 18.2 13.5 -2.1 25 8.5 ESE 13 20 7 11 1019.8 1019.8 0.0
21/04:00pm 18.3 14.9 -2.0 25 8.5 SSE 6 13 3 7 1019.5 1019.5 0.0
21/03:30pm 18.1 13.7 -2.2 25 8.5 SE 11 20 6 11 1019.6 1019.6 0.0
21/03:00pm 18.2 13.9 -1.6 26 8.4 SE 11 20 6 11 1020.0 1020.0 0.0
21/02:30pm 18.7 14.5 -1.2 26 8.5 SSE 11 19 6 10 1020.3 1020.3 0.0
21/02:00pm 17.7 13.0 -1.5 27 8.1 SSE 13 22 7 12 1020.6 1020.6 0.0
21/01:30pm 17.6 13.0 -1.1 28 8.0 SE 13 22 7 12 1021.2 1021.1 0.0
21/01:00pm 17.0 12.4 -1.1 29 7.6 SE 13 20 7 11 1021.7 1021.6 0.0
21/12:30pm 17.0 13.8 -0.7 30 7.5 SSE 6 11 3 6 1022.3 1022.2 0.0
21/12:00pm 16.5 12.3 -1.1 30 7.4 ESE 11 20 6 11 1022.7 1022.7 0.0
21/11:30am 16.3 11.7 -0.8 31 7.2 E 13 24 7 13 1023.1 1023.1 0.0
21/11:00am 16.3 11.1 0.0 33 7.0 ESE 17 24 9 13 1023.4 1023.4 0.0
21/10:30am 14.9 9.7 0.4 37 6.2 E 17 20 9 11 1023.5 1023.5 0.0
21/10:00am 13.6 8.4 0.3 40 5.6 E 17 22 9 12 1023.5 1023.5 0.0
21/09:30am 12.0 6.4 0.1 44 4.9 E 19 22 10 12 1023.2 1023.2 0.0
21/09:00am 10.7 5.5 0.2 48 4.3 E 17 19 9 10 1023.1 1023.1 0.0
21/08:30am 9.0 4.5 -0.1 53 3.6 ESE 13 17 7 9 1022.6 1022.6 0.0
21/08:00am 6.8 2.3 -0.4 60 2.8 ESE 13 15 7 8 1022.4 1022.4 0.0
21/07:30am 5.3 0.7 -0.9 64 2.3 ESE 13 15 7 8 1022.3 1022.2 0.0
21/07:00am 5.4 0.8 -0.8 64 2.3 ESE 13 15 7 8 1022.0 1021.9 0.0
21/06:30am 5.1 0.1 -1.1 64 2.3 ESE 15 17 8 9 1021.6 1021.5 0.0
21/06:00am 5.4 0.4 -1.3 62 2.5 ESE 15 17 8 9 1021.5 1021.4 0.0
21/05:30am 5.7 0.3 -1.2 61 2.6 ESE 17 19 9 10 1021.3 1021.2 0.0
21/05:00am 5.7 1.1 -1.4 60 2.6 ESE 13 15 7 8 1020.9 1020.8 0.0
21/04:30am 5.7 1.0 -1.7 59 2.7 ESE 13 13 7 7 1020.8 1020.7 0.0
21/04:00am 6.1 1.5 -1.3 59 2.8 ESE 13 13 7 7 1020.4 1020.4 0.0
21/03:30am 6.6 2.3 -1.3 57 3.0 ESE 11 15 6 8 1020.1 1020.1 0.0
21/03:00am 8.2 2.9 -0.5 54 3.4 ESE 17 22 9 12 1020.3 1020.3 0.0
21/02:30am 7.4 2.4 -1.0 55 3.2 ESE 15 19 8 10 1020.4 1020.4 0.0
21/02:00am 7.9 2.9 -1.1 53 3.5 SE 15 19 8 10 1020.4 1020.4 0.0
21/01:30am 8.2 3.2 -1.3 51 3.7 SE 15 19 8 10 1021.0 1020.9 0.0
21/01:00am 8.8 3.1 -1.0 50 3.8 SE 19 20 10 11 1020.9 1020.8 0.0
21/12:30am 8.6 3.1 -1.8 48 4.0 ESE 17 19 9 10 1021.0 1020.9 0.0
21/12:00am 8.6 3.9 -2.1 47 4.0 ESE 13 13 7 7 1021.4 1021.3 0.0
 
Date/Time
EST
Temp
°C
App
Temp
°C
Dew
Point
°C
Rel
Hum
%
Delta-T
°C
Wind Press
QNH
hPa
Press
MSL
hPa
Rain since
9am
mm
Dir  Spd
km/h
Gust
km/h
Spd
kts
Gust
kts
20/11:30pm 8.8 3.7 -2.2 46 4.2 ESE 15 17 8 9 1021.3 1021.2 0.0
20/11:00pm 9.1 4.7 -2.2 45 4.3 ESE 11 13 6 7 1021.4 1021.3 0.0
20/10:30pm 10.6 6.2 -2.1 41 4.9 ESE 11 13 6 7 1021.3 1021.2 0.0
20/10:00pm 10.6 6.2 -2.4 40 5.0 SSE 11 15 6 8 1021.1 1021.0 0.0
20/09:30pm 11.4 6.2 -2.4 38 5.4 SSE 15 17 8 9 1021.1 1021.0 0.0
20/09:00pm 12.1 6.6 -2.1 37 5.6 SSE 17 20 9 11 1021.3 1021.2 0.0
20/08:30pm 12.1 6.6 -1.8 38 5.5 SSE 17 17 9 9 1021.1 1021.0 0.0
20/08:00pm 12.8 9.3 -1.5 37 5.7 SSE 7 9 4 5 1020.9 1020.8 0.0
20/07:30pm 14.0 9.8 -1.2 35 6.2 SSE 11 13 6 7 1020.6 1020.6 0.0
20/07:00pm 14.6 10.7 -1.5 33 6.6 SSE 9 13 5 7 1020.3 1020.3 0.0
20/06:30pm 14.9 10.9 -2.1 31 6.9 SSE 9 11 5 6 1019.8 1019.8 0.0
20/06:00pm 16.6 12.3 -1.5 29 7.5 SSE 11 13 6 7 1019.5 1019.5 0.0
20/05:30pm 17.8 13.3 -0.5 29 7.9 SSE 13 17 7 9 1019.5 1019.5 0.0

Other Formats:

Comma delimited format used in spreadsheet applications
http://www.bom.gov.au/fwo/IDQ60801/IDQ60801.95487.axf

JavaScript Object Notation format (JSON) in row-major order
http://www.bom.gov.au/fwo/IDQ60801/IDQ60801.95487.json